Haverhill, Ohio
Current Conditions -  °F | °C
As of 5:51 PM on Tuesday 27 Jan 2015 (Local Time) from KHTS Reporting Station
Clear Clear  
Wind Chill: 17°   Ceiling: Unl
Heat Index: 25°   Visibility: 10mi
Dew Point: 13°   Wind: 7mph
Humidity: 60%   Direction: 350°N
Pressure: 30.1"   Gusts: NA
Location:  38.58°N, 82.83°W
Report Text: KHTS 272251Z 35006KT 10SM CLR M04/M11 A3010 RMK AO2 SLP203 T10391106
Loading
Personal Weather Stations






























Interactive Weather Map New forecast layout! Learn more

10-Day Weather Forecast

Advertisements
Track Severe Weather on mobile